Date,TemperatureHighF,TemperatureAvgF,TemperatureLowF,DewpointHighF,DewpointAvgF,DewpointLowF,HumidityHigh,HumidityAvg,HumidityLow,PressureMaxIn,PressureMinIn,WindSpeedMaxMPH,WindSpeedAvgMPH,GustSpeedMaxMPH,PrecipitationSumIn
2014-1-1,70.2,68.1,64.6,69.9,66.3,61.0,99,94,78,30.07,29.87,8,1,0,0.39
2014-1-2,84.6,72.5,65.5,72.8,68.3,65.2,99,88,62,29.87,29.63,15,4,0,0.19
2014-1-3,67.5,52.7,46.6,67.2,45.6,33.5,99,77,55,30.08,29.72,8,2,0,0.00
2014-1-4,71.6,63.9,49.1,63.7,59.0,46.7,99,85,68,30.07,29.90,8,1,0,0.00
2014-1-5,78.8,69.0,61.0,71.4,66.6,60.7,99,93,78,29.91,29.78,6,2,0,0.21
2014-1-6,81.0,65.0,46.4,71.3,58.0,27.9,99,80,41,30.13,29.78,8,3,0,0.01
2014-1-7,50.9,43.8,38.5,39.6,33.1,23.9,96,67,48,30.28,30.11,8,2,0,0.00
2014-1-8,69.1,59.7,39.9,63.3,53.6,39.1,99,81,61,30.23,30.12,9,4,0,0.00
2014-1-9,71.1,68.3,65.3,70.0,66.8,62.4,99,95,86,30.15,30.04,15,6,0,0.08
2014-1-10,78.8,71.8,66.4,73.9,70.4,66.1,99,96,81,30.04,29.88,6,2,0,0.18
2014-1-11,84.2,74.8,68.0,74.9,71.5,67.7,99,90,70,29.93,29.74,14,4,0,0.07
2014-1-12,70.0,62.1,48.9,69.1,54.8,44.3,99,80,43,30.05,29.81,9,2,0,0.01
2014-1-13,77.7,64.2,46.6,70.4,60.7,45.8,99,89,70,30.03,29.84,9,2,0,0.00
2014-1-14,78.1,70.7,65.5,73.0,67.7,62.9,99,91,73,29.85,29.74,8,3,0,0.03
2014-1-15,67.8,60.8,54.7,63.7,55.6,48.7,98,84,67,29.87,29.76,7,2,0,0.00
2014-1-16,58.6,50.2,37.6,52.6,36.4,24.0,99,64,27,30.01,29.78,9,2,0,0.08
2014-1-17,65.8,48.3,32.9,39.9,32.3,21.0,98,62,18,30.09,29.96,4,1,0,0.00
2014-1-18,62.1,49.2,34.3,45.8,31.9,17.3,96,58,20,30.13,29.96,10,1,0,0.00
2014-1-19,71.2,50.9,29.5,49.2,38.8,26.7,96,67,34,30.11,29.96,9,2,0,0.00
2014-1-20,74.1,57.7,41.2,55.5,48.4,40.7,99,75,34,30.03,29.87,7,2,0,0.00
2014-1-21,76.3,62.2,51.6,59.8,55.5,50.5,99,81,50,29.88,29.64,14,3,0,0.00
2014-1-22,60.1,49.6,35.6,49.9,32.2,24.6,86,54,26,30.04,29.72,14,2,0,0.00
2014-1-23,63.5,48.1,34.5,45.0,38.1,30.0,93,71,40,30.21,30.03,8,1,0,0.00
2014-1-24,63.1,50.8,43.3,46.7,42.1,32.3,95,73,54,30.31,30.11,11,1,0,0.00
2014-1-25,73.8,58.0,43.5,57.3,50.7,40.8,91,78,56,30.10,29.87,8,1,0,0.00
2014-1-26,73.0,61.0,47.1,63.4,57.1,46.0,99,88,70,29.94,29.82,8,1,0,0.00
2014-1-27,82.8,68.0,57.2,67.1,62.9,56.9,99,85,59,29.87,29.75,11,2,0,0.00
2014-1-28,82.2,67.7,55.0,66.8,61.7,54.7,99,84,50,29.93,29.78,7,1,0,0.00
2014-1-29,66.0,58.9,51.4,62.8,57.4,51.1,99,95,85,30.00,29.81,5,1,0,1.18
2014-1-30,59.9,55.1,51.4,59.6,54.8,51.1,99,99,99,30.00,29.90,4,1,0,0.74
2014-1-31,69.1,62.4,55.9,68.8,62.1,55.6,99,99,99,29.97,29.88,5,0,0,3.23
2014-2-1,84.6,72.1,65.3,74.8,70.2,65.0,99,94,67,30.00,29.88,8,2,0,0.01
2014-2-2,83.1,71.2,61.3,73.7,68.2,61.0,99,91,65,30.00,29.88,10,2,0,0.01
2014-2-3,85.3,73.4,63.5,74.3,70.5,63.2,99,92,64,29.96,29.85,7,2,0,0.02
2014-2-4,82.0,73.7,68.2,75.2,71.5,67.9,99,93,79,29.98,29.86,11,3,0,0.01
2014-2-5,84.6,73.9,66.2,75.8,71.1,65.9,99,92,73,29.93,29.80,12,2,0,0.27
2014-2-6,70.3,66.9,56.5,69.9,64.8,56.2,99,93,82,29.99,29.86,7,2,0,0.08
2014-2-7,70.7,63.1,54.0,66.1,61.6,53.7,99,95,85,30.01,29.92,6,0,0,0.03
2014-2-8,75.7,64.5,60.1,69.8,62.9,59.8,99,95,80,29.96,29.88,7,1,0,0.00
2014-2-9,74.1,63.2,53.8,62.8,58.5,53.2,99,86,60,29.96,29.87,11,1,0,0.00
2014-2-10,76.6,62.2,50.9,61.0,55.0,50.6,99,80,53,29.97,29.86,6,1,0,0.00
2014-2-11,79.5,66.2,52.7,69.3,61.7,51.8,99,87,64,29.95,29.83,8,2,0,0.00
2014-2-12,83.5,67.8,58.1,70.2,63.4,57.8,99,87,54,29.85,29.53,11,3,0,0.91
2014-2-13,67.3,60.3,46.2,63.9,53.0,43.1,99,79,53,29.82,29.51,16,6,0,0.05
2014-2-14,65.3,52.2,38.8,48.3,43.8,36.3,99,77,39,29.94,29.79,8,2,0,0.00
2014-2-15,74.5,58.8,46.2,61.0,45.0,28.3,99,67,19,29.98,29.76,12,4,0,0.00
2014-2-16,71.2,54.9,40.8,51.4,43.7,38.0,99,71,31,30.05,29.95,9,1,0,0.00
2014-2-17,75.9,59.3,42.6,58.7,49.0,39.4,99,75,28,30.11,30.00,7,1,0,0.00
2014-2-18,82.6,65.1,50.0,63.9,57.2,49.7,99,79,33,30.10,29.99,7,2,0,0.00
2014-2-19,81.3,66.9,53.4,68.6,61.9,53.1,99,86,58,30.05,29.91,9,2,0,0.00
2014-2-20,80.4,70.4,56.5,70.2,65.9,56.2,99,87,70,30.03,29.91,12,4,0,0.00
2014-2-21,85.1,73.4,67.3,75.1,70.5,67.0,99,91,66,29.93,29.82,11,3,0,0.40
2014-2-22,82.4,70.6,66.0,74.7,69.3,65.7,99,96,74,29.94,29.82,8,2,0,0.32
2014-2-23,87.4,71.9,63.3,74.1,68.2,63.0,99,90,57,29.93,29.80,8,1,0,0.67
2014-2-24,82.0,69.4,64.0,72.2,66.6,63.7,99,92,64,29.89,29.78,11,2,0,0.01
2014-2-25,81.0,69.0,61.2,68.7,64.9,60.9,99,88,65,29.89,29.75,7,1,0,0.00
2014-2-26,81.3,68.7,58.1,67.9,63.2,57.8,99,85,55,29.79,29.55,9,2,0,0.01
2014-2-27,67.5,61.6,54.3,65.0,59.0,53.8,99,92,78,29.82,29.58,6,1,0,0.03
2014-2-28,73.6,60.9,51.1,57.5,53.8,46.7,99,80,53,29.94,29.75,5,1,0,0.01
2014-3-1,78.4,63.9,50.5,63.9,58.0,50.2,99,83,47,30.04,29.91,10,2,0,0.00
2014-3-2,79.2,66.9,53.2,66.3,60.9,52.9,99,83,55,30.05,29.89,11,2,0,0.00
2014-3-3,86.0,71.6,58.6,65.2,60.2,56.5,99,71,40,29.93,29.78,13,3,0,0.00
2014-3-4,80.4,68.7,57.7,68.5,63.5,57.4,99,85,59,29.91,29.79,8,2,0,0.00
2014-3-5,77.7,67.3,61.0,69.9,65.0,60.7,99,93,76,29.89,29.78,8,2,0,0.00
2014-3-6,75.7,69.1,64.8,74.2,68.4,64.2,99,97,90,29.85,29.52,5,1,0,0.18
2014-3-7,72.3,63.8,50.2,65.2,57.6,44.9,99,82,58,29.90,29.59,16,4,0,0.06
2014-3-8,71.6,59.2,47.3,60.0,53.3,43.6,99,82,65,29.99,29.88,8,1,0,0.00
2014-3-9,77.4,63.9,51.4,62.1,56.1,51.1,99,79,49,30.04,29.92,10,2,0,0.00
2014-3-10,83.3,66.2,54.3,65.7,59.9,54.0,99,83,47,29.97,29.78,6,1,0,0.00
2014-3-11,81.3,67.3,54.0,66.7,59.5,50.2,99,79,34,29.84,29.67,7,2,0,0.00
2014-3-12,82.2,71.7,65.1,71.2,66.5,62.3,97,84,63,29.70,29.55,14,4,0,0.11
2014-3-13,69.4,61.4,53.4,63.6,47.9,39.4,92,64,37,30.06,29.65,11,2,0,0.00
2014-3-14,74.1,61.6,48.0,55.4,49.9,41.7,93,67,48,30.13,30.02,9,3,0,0.00
2014-3-15,77.4,64.2,48.9,61.8,56.0,48.6,99,77,52,30.04,29.87,12,2,0,0.00
2014-3-16,85.1,71.3,56.3,67.8,61.1,56.0,99,74,42,29.89,29.60,12,4,0,0.00
2014-3-17,80.2,74.9,68.9,73.1,70.2,64.7,95,86,76,29.63,29.49,15,5,0,0.02
2014-3-18,78.4,69.6,61.3,73.4,63.8,54.4,99,84,44,29.86,29.43,21,5,0,0.71
2014-3-19,77.7,65.7,54.1,64.9,60.5,53.8,99,85,59,29.97,29.86,9,2,0,0.00
2014-3-20,79.0,68.7,57.6,67.1,63.6,57.3,99,85,66,29.93,29.80,10,2,0,0.00
2014-3-21,80.2,71.5,62.4,67.7,64.4,62.1,99,80,58,29.94,29.84,13,3,0,0.00
2014-3-22,87.1,75.9,66.2,72.0,65.7,57.0,99,74,37,29.90,29.75,10,3,0,0.04
2014-3-23,86.9,73.3,61.0,70.8,64.9,58.9,94,76,59,29.88,29.75,7,2,0,0.00
2014-3-24,79.0,69.7,64.4,68.6,66.4,64.1,99,90,65,29.88,29.73,6,2,0,0.06
2014-3-25,78.1,68.2,58.3,67.7,60.9,44.5,99,80,51,29.83,29.63,12,4,0,0.05
2014-3-26,62.1,54.6,44.6,46.2,39.8,27.6,90,58,45,30.14,29.83,10,1,0,0.00
2014-3-27,68.5,61.6,47.5,62.4,56.2,45.1,95,83,67,30.20,30.06,12,2,0,0.03
2014-3-28,78.6,72.4,62.2,69.1,66.1,60.7,95,81,70,30.06,29.87,14,5,0,0.00
2014-3-29,83.7,72.0,65.5,74.9,69.5,65.1,99,93,73,29.90,29.66,16,3,0,0.87
2014-3-30,80.2,67.4,56.7,66.9,52.9,40.6,99,66,25,29.91,29.72,9,2,0,0.00
2014-3-31,76.6,62.1,50.0,55.3,51.5,46.6,99,72,42,30.00,29.91,6,1,0,0.00
2014-4-1,79.2,63.9,45.0,61.9,55.1,43.9,99,77,42,30.04,29.95,11,2,0,0.00
2014-4-2,81.0,66.6,50.4,62.9,58.5,49.9,99,78,52,30.04,29.96,7,2,0,0.00
2014-4-3,82.9,70.2,55.8,68.6,63.5,55.5,99,81,59,30.00,29.88,9,3,0,0.00
2014-4-4,83.8,72.9,58.6,69.2,65.5,57.4,99,79,54,29.91,29.81,10,3,0,0.00
2014-4-5,83.1,73.0,64.4,71.2,67.7,64.1,99,85,59,29.90,29.78,9,3,0,0.00
2014-4-6,88.0,75.8,66.6,71.1,68.6,63.6,99,81,45,29.87,29.76,8,3,0,0.00
2014-4-7,91.6,78.1,65.8,76.2,69.9,65.5,99,79,47,29.80,29.64,10,3,0,0.11
2014-4-8,81.5,72.9,64.6,77.6,71.6,63.7,99,96,86,29.71,29.51,12,4,0,0.37
2014-4-9,78.1,65.7,55.2,63.3,55.6,50.7,96,73,40,30.00,29.67,10,3,0,0.00
2014-4-10,79.3,66.0,52.2,60.7,55.5,51.2,99,72,42,30.14,30.00,11,2,0,0.00
2014-4-11,78.3,70.1,58.5,69.7,63.9,53.5,96,81,68,30.10,29.98,10,3,0,0.33
2014-4-12,81.0,72.2,61.9,67.3,63.2,60.7,99,75,52,30.05,29.95,10,3,0,0.00
2014-4-13,82.0,75.0,69.3,70.3,67.4,65.3,95,78,63,29.97,29.87,15,6,0,0.00
2014-4-14,84.4,76.9,69.4,76.7,72.4,68.8,98,86,73,29.87,29.69,11,3,0,0.05
2014-4-15,90.9,77.3,69.3,74.5,72.1,69.0,99,86,52,29.74,29.60,16,3,0,0.27
2014-4-16,76.6,68.3,59.0,68.8,62.2,53.6,95,81,67,29.97,29.74,11,3,0,0.00
2014-4-17,75.7,73.0,69.8,71.0,68.8,64.4,96,87,79,30.03,29.92,14,7,0,0.04
2014-4-18,82.0,74.7,68.4,75.7,71.8,68.1,99,91,76,29.97,29.76,12,4,0,1.28
2014-4-19,83.3,73.2,62.6,72.5,67.5,59.3,99,84,55,29.80,29.68,11,4,0,0.66
2014-4-20,74.3,65.7,59.9,64.0,61.2,56.7,99,86,68,29.90,29.76,9,1,0,0.00
2014-4-21,77.9,68.0,59.2,66.9,62.7,58.8,99,84,66,29.89,29.78,7,1,0,0.00
2014-4-22,84.0,69.4,57.2,66.8,63.0,56.9,99,82,55,29.80,29.66,7,1,0,0.00
2014-4-23,83.1,71.8,59.7,67.4,64.7,59.4,99,80,56,29.79,29.69,7,2,0,0.00
2014-4-24,85.5,74.7,61.2,73.6,68.2,60.6,99,82,60,29.86,29.75,10,3,0,0.00
2014-4-25,89.6,75.4,64.2,71.2,68.0,63.9,99,80,47,29.86,29.73,8,2,0,0.00
2014-4-26,85.5,74.2,62.8,73.2,69.3,62.4,99,86,62,29.85,29.76,9,2,0,0.00
2014-4-27,86.4,77.1,66.7,75.9,71.9,66.4,99,85,63,29.86,29.76,14,3,0,0.00
2014-4-28,89.4,78.5,68.2,76.3,72.2,67.9,99,83,55,29.82,29.72,10,3,0,0.00
2014-4-29,88.5,78.9,71.1,78.6,74.8,70.8,99,88,67,29.86,29.71,12,3,0,0.04
2014-4-30,89.4,78.6,71.1,78.7,74.6,69.6,99,89,64,29.90,29.79,9,2,0,0.21
2014-5-1,93.0,78.6,68.7,78.1,73.1,68.4,99,86,51,29.87,29.72,9,2,0,0.97
2014-5-2,88.2,75.2,68.9,76.2,72.1,68.6,99,91,63,29.82,29.70,11,2,0,0.91
2014-5-3,75.2,70.8,65.1,74.9,70.5,64.8,99,99,96,29.84,29.72,5,1,0,1.20
2014-5-4,84.4,70.9,58.1,64.9,59.5,52.5,99,73,36,29.91,29.81,11,1,0,0.12
2014-5-5,88.5,72.4,57.6,66.1,61.2,57.1,99,73,36,29.91,29.80,8,1,0,0.00
2014-5-6,86.7,72.9,59.2,69.3,64.3,58.1,99,78,45,29.89,29.81,8,2,0,0.00
2014-5-7,86.2,75.6,62.4,75.3,69.1,62.1,99,82,60,29.98,29.86,8,2,0,0.00
2014-5-8,87.3,78.7,68.4,74.2,71.5,67.2,99,80,56,30.05,29.94,10,4,0,0.00
2014-5-9,86.7,78.9,71.4,74.0,72.1,70.0,97,81,65,30.03,29.92,9,4,0,0.00
2014-5-10,85.6,79.3,73.8,73.7,71.9,68.7,92,79,63,30.00,29.88,11,4,0,0.00
2014-5-11,86.4,78.2,71.2,74.6,71.7,68.6,98,81,64,29.99,29.89,9,3,0,0.00
2014-5-12,86.2,77.9,70.5,73.6,71.8,68.8,99,82,63,30.00,29.91,12,4,0,0.00
2014-5-13,85.6,79.2,74.8,75.6,73.5,71.2,96,83,68,29.93,29.85,14,6,0,0.00
2014-5-14,87.1,79.9,73.2,77.8,75.2,71.4,99,86,68,29.91,29.80,14,5,0,0.16
2014-5-15,86.4,76.1,70.9,79.0,74.2,70.6,99,94,73,29.86,29.71,14,3,0,1.34
2014-5-16,79.5,71.3,63.1,71.5,62.5,50.9,99,77,39,29.95,29.76,8,2,0,0.00
2014-5-17,80.6,69.9,57.6,64.3,59.5,56.6,99,72,47,29.99,29.92,11,2,0,0.00
2014-5-18,82.2,75.0,65.3,66.2,63.8,61.0,87,69,57,29.99,29.93,12,4,0,0.00
2014-5-19,83.5,75.0,62.4,71.6,66.0,60.9,99,75,59,30.01,29.93,11,3,0,0.00
2014-5-20,84.4,75.5,64.0,74.4,66.9,62.2,99,76,59,30.04,29.96,11,3,0,0.00
2014-5-21,84.4,74.5,63.0,69.7,64.3,61.2,99,73,54,30.04,29.95,8,2,0,0.00
2014-5-22,90.7,76.6,60.6,69.7,65.5,59.9,99,72,46,30.00,29.85,7,2,0,0.00
2014-5-23,93.6,80.5,68.9,73.1,68.9,63.8,90,69,46,29.93,29.82,7,2,0,0.00
2014-5-24,92.8,81.6,70.9,76.5,73.5,70.2,99,78,56,29.91,29.82,9,2,0,0.00
2014-5-25,90.1,81.0,70.7,77.3,74.4,69.8,99,81,59,29.97,29.85,9,3,0,0.00
2014-5-26,86.5,80.3,74.1,77.2,75.1,72.8,99,84,73,30.03,29.93,12,4,0,0.00
2014-5-27,86.7,78.3,68.7,74.8,71.8,68.4,99,81,64,30.00,29.88,10,3,0,0.00
2014-5-28,89.1,78.3,67.3,76.7,72.2,67.0,99,83,59,29.92,29.82,9,3,0,0.00
2014-5-29,88.0,78.3,69.1,77.9,73.0,68.8,99,85,65,29.89,29.80,11,2,0,0.24
2014-5-30,86.0,76.8,68.0,78.0,72.9,67.7,99,88,72,29.86,29.81,8,2,0,0.01
2014-5-31,87.6,78.2,70.3,77.1,74.2,70.0,99,88,70,29.89,29.81,8,2,0,0.02
2014-6-1,86.0,77.3,70.0,78.3,73.6,69.7,99,89,72,29.92,29.83,13,4,0,0.04
2014-6-2,84.4,78.0,73.9,74.0,69.6,64.9,99,76,64,29.96,29.87,15,6,0,0.08
2014-6-3,83.5,76.8,68.5,69.0,66.2,64.5,88,70,59,29.91,29.82,8,2,0,0.00
2014-6-4,84.6,75.1,65.5,70.9,65.6,63.0,99,75,53,29.84,29.76,10,2,0,0.00
2014-6-5,89.2,78.0,65.5,72.3,68.1,62.6,99,74,42,29.81,29.72,9,2,0,0.00
2014-6-6,93.4,80.8,69.1,75.8,71.8,67.5,98,76,54,29.82,29.73,8,2,0,0.00
2014-6-7,95.7,81.9,71.8,77.7,73.0,69.7,99,77,46,29.85,29.72,10,1,0,0.19
2014-6-8,91.8,79.8,68.9,76.5,72.5,68.6,99,80,57,29.85,29.72,8,2,0,0.01
2014-6-9,90.7,80.1,70.2,76.6,73.0,69.8,99,81,52,29.85,29.72,9,2,0,0.00
2014-6-10,94.6,80.2,72.0,78.1,73.3,67.8,99,81,49,29.85,29.78,10,2,0,0.00
2014-6-11,90.5,74.5,69.4,76.5,72.3,69.1,99,94,57,29.85,29.78,12,2,0,0.87
2014-6-12,92.8,74.8,68.4,76.0,70.7,67.6,99,89,52,29.85,29.75,12,2,0,0.84
2014-6-13,91.8,76.3,68.5,76.9,71.6,68.2,99,86,57,29.87,29.77,9,3,0,0.08
2014-6-14,91.6,74.4,69.4,75.9,71.3,69.1,99,92,54,29.95,29.80,6,2,0,0.54
2014-6-15,88.2,77.9,68.4,79.4,74.2,68.1,99,89,71,29.97,29.87,9,2,0,0.05
2014-6-16,89.1,77.6,68.7,78.0,72.8,68.4,99,86,70,30.01,29.90,7,2,0,0.00
2014-6-17,87.8,78.7,67.8,78.5,72.8,67.5,99,84,67,29.99,29.90,11,2,0,0.00
2014-6-18,88.5,77.8,70.0,78.1,73.3,69.3,99,87,66,29.96,29.90,10,2,0,0.00
2014-6-19,84.6,76.4,70.3,77.4,73.5,70.0,99,91,72,29.97,29.87,10,1,0,0.49
2014-6-20,91.0,75.6,71.1,78.4,73.4,70.8,99,93,61,29.91,29.80,9,2,0,2.73
2014-6-21,95.4,78.3,69.6,78.4,73.5,69.3,99,87,53,29.84,29.73,10,3,0,1.91
2014-6-22,95.0,81.1,70.7,79.2,74.4,70.4,99,83,49,29.82,29.72,8,2,0,0.00
2014-6-23,91.0,78.8,73.2,78.5,75.1,72.9,99,89,63,29.92,29.77,12,2,0,0.59
2014-6-24,93.2,80.3,72.1,78.7,74.8,71.8,99,85,60,29.97,29.88,9,1,0,0.06
2014-6-25,91.8,82.7,72.9,79.9,76.3,72.6,99,82,64,29.96,29.84,10,2,0,0.00
2014-6-26,93.6,82.2,70.7,78.6,74.6,70.1,99,80,55,29.94,29.79,9,2,0,0.23
2014-6-27,92.8,80.4,70.5,79.7,74.7,70.2,99,84,62,29.93,29.84,8,2,0,0.00
2014-6-28,93.9,81.4,70.9,78.7,74.6,70.4,99,82,55,29.97,29.87,8,1,0,0.00
2014-6-29,95.0,79.8,71.4,81.4,76.2,71.1,99,90,59,29.96,29.84,7,1,0,1.30
2014-6-30,92.3,81.1,73.8,83.0,77.2,73.5,99,89,68,29.88,29.72,6,2,0,0.08
2014-7-1,87.8,80.1,74.7,81.1,77.4,74.4,99,92,75,29.74,29.64,8,1,0,0.05
2014-7-2,89.1,79.6,73.4,78.6,75.5,71.6,99,88,70,29.78,29.64,8,2,0,0.01
2014-7-3,93.6,82.8,75.0,80.8,76.9,72.8,99,84,61,29.92,29.76,15,3,0,0.01
2014-7-4,94.3,79.0,72.5,79.8,74.6,72.2,99,88,55,29.95,29.86,14,2,0,3.39
2014-7-5,90.5,77.5,70.7,81.5,74.8,70.4,99,92,66,29.98,29.86,11,2,0,0.10
2014-7-6,91.2,76.5,72.1,81.5,74.8,71.8,99,95,64,29.93,29.85,12,1,0,1.29
2014-7-7,88.9,78.2,70.5,81.6,75.2,70.2,99,91,69,29.94,29.85,11,1,0,0.02
2014-7-8,92.8,78.3,70.5,81.6,74.9,69.8,99,91,60,29.97,29.88,9,1,0,1.19
2014-7-9,91.6,78.1,71.1,78.9,74.1,70.8,99,89,59,29.97,29.88,7,1,0,0.07
2014-7-10,90.9,79.7,72.7,79.0,75.1,72.4,99,87,61,29.96,29.88,8,2,0,0.00
2014-7-11,89.6,80.5,71.4,80.4,76.3,71.1,99,88,70,29.98,29.88,9,2,0,0.00
2014-7-12,91.4,81.6,73.2,81.1,77.6,72.9,99,89,66,29.97,29.90,7,2,0,0.02
2014-7-13,90.1,81.4,74.3,81.6,77.9,74.0,99,90,72,29.95,29.88,7,2,0,0.09
2014-7-14,92.8,80.6,72.1,80.4,75.9,71.8,99,87,57,29.93,29.82,10,2,0,0.05
2014-7-15,91.8,77.6,72.9,79.9,74.9,72.6,99,92,62,29.87,29.76,8,1,0,0.02
2014-7-16,89.8,76.9,72.3,80.1,75.3,72.0,99,95,71,29.85,29.74,10,2,0,0.06
2014-7-17,90.3,80.6,73.8,80.0,76.8,73.5,99,89,68,29.84,29.74,9,2,0,0.00
2014-7-18,90.7,82.3,73.6,81.2,77.7,73.3,99,87,68,29.91,29.81,8,2,0,0.00
2014-7-19,91.0,82.8,73.6,81.3,76.8,73.3,99,83,65,29.91,29.83,7,2,0,0.00
2014-7-20,92.5,83.1,75.6,81.8,77.5,75.3,99,84,60,29.90,29.82,7,1,0,0.00
2014-7-21,92.8,80.0,74.3,81.3,76.9,73.9,99,91,60,29.89,29.80,6,1,0,0.00
2014-7-22,91.6,79.1,73.8,81.7,76.3,73.5,99,92,64,29.90,29.82,6,1,0,0.12
2014-7-23,92.7,81.3,72.1,81.1,77.0,71.8,99,88,63,29.91,29.82,7,2,0,0.01
2014-7-24,95.5,82.6,75.0,80.0,77.3,74.7,99,85,54,29.89,29.79,8,2,0,0.02
2014-7-25,94.3,81.1,75.2,80.9,77.3,74.9,99,89,58,29.91,29.83,7,1,0,0.01
2014-7-26,96.3,82.0,71.1,81.5,76.7,70.8,99,86,51,29.94,29.82,10,2,0,0.04
2014-7-27,97.9,87.9,74.7,81.3,77.0,73.1,99,72,50,29.93,29.81,7,2,0,0.01
2014-7-28,95.5,84.4,76.1,83.5,77.4,74.8,99,81,54,29.88,29.76,10,3,0,0.03
2014-7-29,93.6,81.1,75.4,80.6,76.9,73.6,99,88,63,29.81,29.73,8,2,0,0.00
2014-7-30,90.1,82.4,74.7,79.1,76.5,74.4,99,83,68,29.79,29.73,9,2,0,0.00
2014-7-31,94.1,83.1,75.9,81.3,77.3,75.5,99,84,57,29.82,29.74,8,2,0,0.00
2014-8-1,95.9,83.2,75.0,80.1,77.1,74.7,99,83,55,29.82,29.74,8,2,0,0.00
2014-8-2,91.4,83.8,75.6,82.1,78.3,75.3,99,84,68,29.81,29.73,8,3,0,0.00
2014-8-3,91.9,81.5,76.5,82.8,78.5,61.9,99,91,56,29.78,29.68,5,1,0,1.25
2014-8-4,89.4,79.0,75.9,79.9,76.7,74.4,99,93,73,29.80,29.72,6,2,0,0.01
2014-8-5,90.9,80.7,75.0,80.5,77.0,74.7,99,89,68,29.90,29.77,7,2,0,0.00
2014-8-6,92.8,82.0,74.7,80.8,78.0,74.4,99,89,64,29.90,29.81,8,1,0,0.00
2014-8-7,93.2,80.0,74.5,81.4,77.3,74.0,99,92,65,29.86,29.78,7,1,0,0.20
2014-8-8,95.0,80.4,71.8,82.1,76.1,71.5,99,88,59,29.90,29.79,11,2,0,1.17
2014-8-9,93.2,80.6,73.0,82.2,76.2,72.7,99,88,61,29.92,29.83,9,1,0,0.01
2014-8-10,94.8,81.1,74.5,80.9,76.1,73.5,99,86,55,29.91,29.84,8,2,0,0.00
2014-8-11,93.2,80.6,73.8,80.3,75.4,72.7,99,85,59,29.89,29.81,7,2,0,0.00
2014-8-12,95.2,83.1,72.3,79.1,74.6,72.0,99,78,49,29.87,29.76,8,2,0,0.00
2014-8-13,96.4,82.9,75.0,80.8,77.2,74.7,99,84,55,29.87,29.78,8,2,0,0.03
2014-8-14,94.6,80.2,75.6,81.3,76.9,73.6,99,91,60,29.88,29.81,7,2,0,0.05
2014-8-15,91.4,77.4,72.7,80.9,75.5,71.9,99,94,70,29.89,29.80,6,1,0,1.02
2014-8-16,94.1,77.6,72.0,79.3,74.9,71.7,99,92,60,29.96,29.83,8,1,0,0.20
2014-8-17,93.0,81.6,72.7,80.6,77.2,72.4,99,87,67,29.97,29.85,6,2,0,0.13
2014-8-18,95.7,81.8,75.4,82.0,77.7,74.0,99,88,58,29.92,29.80,9,1,0,0.11
2014-8-19,96.4,84.4,75.0,80.0,77.4,74.1,99,81,49,29.89,29.79,8,2,0,0.00
2014-8-20,94.3,84.8,76.8,81.2,78.4,76.5,99,83,60,29.94,29.82,7,1,0,0.00
2014-8-21,94.1,84.0,76.5,82.8,78.0,75.4,99,84,60,29.97,29.87,6,1,0,0.00
2014-8-22,94.3,83.6,75.9,81.7,77.4,75.6,99,83,60,29.94,29.81,9,1,0,0.00
2014-8-23,94.5,84.2,73.8,81.7,76.7,73.5,99,80,57,29.84,29.68,7,1,0,0.00
2014-8-24,96.3,83.9,74.8,82.1,78.3,74.5,99,85,60,29.72,29.57,11,1,0,0.09
2014-8-25,89.1,83.1,77.7,82.0,78.4,74.5,99,86,72,29.68,29.59,14,5,0,0.06
2014-8-26,89.6,83.8,78.1,78.1,74.9,69.2,95,75,62,29.77,29.65,14,5,0,0.01
2014-8-27,91.2,82.2,73.4,78.8,74.9,71.3,99,80,55,29.84,29.73,8,2,0,0.00
2014-8-28,90.3,82.3,73.0,82.9,76.5,72.7,99,84,64,29.86,29.77,10,2,0,0.00
2014-8-29,94.3,82.1,72.9,81.4,76.3,72.6,99,84,57,29.96,29.83,13,2,0,0.62
2014-8-30,90.5,80.6,73.0,82.9,77.1,72.7,99,90,73,29.98,29.88,9,1,0,0.01
2014-8-31,91.6,82.5,73.2,81.7,76.8,72.9,99,84,59,29.98,29.89,10,2,0,0.00
2014-9-1,91.9,82.6,73.8,81.4,76.7,73.5,99,84,65,29.96,29.87,10,2,0,0.00
2014-9-2,90.9,82.1,74.1,81.0,75.8,73.8,99,82,63,29.93,29.83,10,2,0,0.00
2014-9-3,89.2,80.5,72.5,79.9,75.5,72.2,99,86,68,29.90,29.82,12,2,0,0.27
2014-9-4,90.7,78.8,72.3,78.6,75.1,72.0,99,89,60,29.94,29.87,9,1,0,0.05
2014-9-5,91.6,79.4,72.7,79.7,75.4,72.4,99,89,62,29.98,29.87,9,1,0,0.05
2014-9-6,88.9,75.4,71.4,80.5,73.8,69.8,99,95,73,29.91,29.80,14,1,0,0.39
2014-9-7,89.2,76.5,72.5,80.7,75.1,72.2,99,96,75,29.89,29.80,4,1,0,0.14
2014-9-8,91.4,79.6,70.7,80.7,75.2,70.4,99,88,64,29.91,29.81,7,1,0,0.01
2014-9-9,91.4,81.2,72.1,78.8,75.2,71.8,99,83,60,29.91,29.81,9,2,0,0.00
2014-9-10,89.8,81.9,73.4,79.4,76.0,73.1,99,83,66,29.88,29.80,12,3,0,0.00
2014-9-11,91.8,79.8,73.4,80.4,76.2,73.1,99,90,67,29.86,29.75,14,1,0,0.57
2014-9-12,88.7,82.2,77.0,80.1,77.9,76.0,99,87,74,29.86,29.75,10,3,0,0.02
2014-9-13,89.2,81.4,73.0,77.0,75.0,72.7,99,82,62,29.93,29.82,11,2,0,0.00
2014-9-14,89.1,79.1,70.5,76.3,73.8,70.2,99,85,60,29.99,29.90,9,2,0,0.34
2014-9-15,91.2,80.5,70.5,79.8,73.8,70.2,99,82,55,30.01,29.90,6,1,0,0.01
2014-9-16,91.9,80.0,72.9,77.7,74.6,71.4,99,85,58,29.95,29.79,6,1,0,0.06
2014-9-17,83.8,77.2,72.5,77.7,74.4,72.2,99,91,78,29.81,29.68,9,2,0,0.00
2014-9-18,90.7,79.7,71.8,79.0,74.6,71.5,99,86,61,29.77,29.69,9,2,0,0.00
2014-9-19,86.7,76.6,69.8,80.5,74.3,69.5,99,93,77,29.82,29.72,9,2,0,2.70
2014-9-20,79.9,74.3,70.9,78.1,73.9,70.6,99,99,94,29.81,29.69,8,1,0,1.52
2014-9-21,88.2,75.9,69.4,78.8,74.4,69.1,99,96,71,29.86,29.75,5,0,0,0.75
2014-9-22,87.4,75.4,70.5,79.5,73.6,70.2,99,95,76,29.89,29.78,7,1,0,2.05
2014-9-23,87.4,74.6,70.5,81.0,73.6,70.2,99,97,77,29.86,29.77,8,1,0,1.74
2014-9-24,80.4,75.3,71.1,79.5,75.0,70.8,99,99,96,29.95,29.81,15,0,0,1.13
2014-9-25,87.3,78.2,72.9,81.1,76.1,72.6,99,94,80,29.91,29.81,8,1,0,0.16
2014-9-26,89.6,77.5,72.1,80.9,75.8,71.8,99,95,75,29.86,29.77,6,1,0,0.68
2014-9-27,90.0,79.4,72.0,81.0,76.5,71.7,99,91,74,29.85,29.76,8,2,0,0.04
2014-9-28,135.3,80.3,72.9,99.9,76.9,72.6,99,91,74,29.84,29.75,8,2,0,0.45
2014-9-29,75.7,74.4,74.1,75.4,74.1,73.8,99,99,99,29.79,29.64,8,1,0,2.41
2014-9-30,74.3,74.3,74.3,74.0,74.0,74.0,99,99,99,29.70,29.62,8,1,0,0.00
2014-10-1,74.3,74.3,74.3,74.0,74.0,74.0,99,99,99,29.80,29.67,7,1,0,0.58
2014-10-2,74.3,74.3,74.3,74.0,74.0,74.0,99,99,99,29.87,29.77,8,2,0,0.01
2014-10-3,74.3,74.3,74.3,74.0,74.0,74.0,99,99,99,29.88,29.74,8,1,0,0.57
2014-10-4,74.3,74.3,74.3,74.0,74.0,74.0,99,99,99,29.79,29.62,7,2,0,0.01
2014-10-5,74.3,74.3,74.3,74.0,74.0,74.0,99,99,99,29.87,29.73,7,1,0,0.00
2014-10-6,74.3,72.2,71.1,74.0,71.5,70.2,99,98,97,29.93,29.84,6,1,0,0.00
2014-10-7,71.1,71.1,71.1,70.2,70.2,70.2,97,97,97,29.94,29.86,7,1,0,0.00
2014-10-8,78.6,75.8,71.1,77.4,74.7,70.2,97,96,96,29.98,29.87,7,1,0,0.00
2014-10-9,78.6,78.6,78.6,77.4,77.4,77.4,96,96,96,29.94,29.85,11,3,0,0.00
2014-10-10,78.6,77.3,76.6,77.4,76.1,75.4,96,96,96,29.92,29.81,9,3,0,0.00
2014-10-11,77.4,77.1,76.6,76.5,76.1,75.4,97,97,96,29.88,29.80,7,2,0,0.00
2014-10-12,77.4,76.4,75.9,76.5,75.9,75.6,99,98,97,29.91,29.84,8,2,0,0.00
2014-10-13,75.9,75.9,75.9,75.6,75.6,75.6,99,99,99,29.95,29.85,8,4,0,0.00
2014-10-14,140.0,114.9,75.9,99.9,90.3,72.3,99,92,60,29.88,29.73,8,3,0,1.49
2014-10-15,140.0,107.9,54.3,99.9,91.4,51.1,99,91,49,29.83,29.70,7,1,0,0.01
2014-10-16,78.3,65.9,54.3,99.9,63.1,45.8,99,88,56,29.81,29.68,8,1,0,0.00
2014-10-17,69.8,64.7,58.5,67.4,61.5,50.2,99,90,71,29.83,29.74,8,1,0,0.00
2014-10-18,70.7,66.9,59.5,67.6,64.1,51.5,99,91,67,29.83,29.72,6,1,0,0.00
2014-10-19,69.4,66.8,57.9,68.8,65.6,57.6,99,96,69,29.88,29.79,8,1,0,0.00
2014-10-20,117.0,98.3,66.0,99.9,87.1,61.7,99,84,58,29.90,29.76,7,1,0,0.00
2014-10-21,117.0,78.9,62.4,99.9,73.6,50.0,99,89,49,29.80,29.73,5,1,0,0.00
2014-10-22,149.4,115.0,70.2,99.9,85.6,66.5,93,89,88,29.82,29.74,8,1,0,0.00
2014-10-23,149.4,149.4,149.4,99.9,99.9,99.9,89,89,89,29.82,29.74,9,2,0,0.00
2014-10-24,149.4,87.5,61.2,99.9,72.1,59.6,99,80,57,29.81,29.71,12,2,0,0.00
2014-10-25,86.0,79.1,66.7,83.7,74.0,59.6,99,85,63,29.81,29.73,6,1,0,0.00
2014-10-26,135.1,116.8,56.7,99.9,93.8,48.9,99,93,64,29.87,29.76,6,1,0,0.00
2014-11-1,-40.0,-40.0,-40.0,-99.9,0.0,-104.6,0,0,100,29.84,29.83,19,6,0,1.23
2014-11-2,136.6,136.6,136.6,99.9,99.9,99.9,86,86,86,30.15,30.04,5,1,0,0.00
2014-11-3,149.0,25.2,59.7,99.9,97.5,54.5,95,86,47,30.19,30.10,8,2,0,0.00
2014-11-4,150.8,0.0,150.8,99.9,99.9,99.9,89,89,89,30.15,30.02,13,4,0,0.00
2014-11-5,150.8,98.3,77.7,99.9,98.9,68.5,96,91,34,30.07,29.94,10,2,0,0.00
2014-11-6,141.4,108.9,63.1,99.9,84.4,42.0,99,87,44,29.98,29.80,5,1,0,0.00
2014-11-23,85.6,74.1,74.1,73.6,68.8,69.6,94,80,62,29.78,29.70,7,3,0,0.00
2014-11-24,87.8,77.7,72.7,75.0,72.4,70.2,99,85,58,29.86,29.73,10,2,0,0.00
2014-11-25,83.3,76.6,72.5,76.6,73.7,70.5,99,91,76,29.84,29.68,6,2,0,0.90
2014-11-26,75.4,60.3,46.4,74.2,58.3,45.3,99,93,76,30.04,29.69,8,2,0,0.94
2014-11-27,72.9,57.2,43.2,52.6,46.0,36.7,99,70,44,30.13,29.98,7,1,0,0.00
2014-11-28,66.7,54.5,46.0,48.0,43.8,36.2,86,68,50,30.15,30.05,4,1,0,0.00
2014-11-29,73.9,59.6,49.1,56.7,51.9,46.5,98,78,49,30.15,30.05,9,1,0,0.00
2014-11-30,78.3,65.3,52.0,63.5,57.6,50.6,99,78,52,30.16,30.07,11,2,0,0.00
2014-12-1,69.3,64.6,61.3,62.9,61.1,59.2,97,89,80,30.11,30.08,3,1,0,0.00
2014-12-5,80.1,71.2,66.9,73.0,68.2,66.2,99,90,72,30.07,29.98,10,2,0,0.61
2014-12-6,81.3,70.8,63.1,70.6,67.3,62.7,99,90,65,30.05,29.91,6,1,0,0.01
2014-12-7,72.0,65.0,58.3,65.2,62.2,57.1,99,91,73,29.95,29.85,6,1,0,0.00
2014-12-8,69.3,65.2,60.6,67.5,64.6,60.3,99,98,93,29.92,29.82,4,1,0,0.57
2014-12-9,68.9,58.2,48.7,60.3,52.1,45.5,99,82,51,29.91,29.80,7,1,0,0.11
2014-12-10,67.3,51.9,42.1,45.7,42.6,39.4,99,75,38,30.00,29.89,5,1,0,0.00
2014-12-11,67.3,51.6,39.0,47.3,44.4,38.2,99,80,46,30.05,29.93,8,1,0,0.00
2014-12-12,61.9,51.6,45.5,50.5,47.0,44.7,99,85,65,30.10,30.00,3,0,0,0.00
2014-12-13,71.4,55.0,41.5,52.1,46.8,40.0,99,77,47,30.03,29.92,5,0,0,0.00
2014-12-14,74.1,53.5,38.3,48.3,41.7,37.5,99,71,28,29.96,29.86,5,0,0,0.00
2014-12-15,75.7,54.3,39.2,49.2,43.9,37.9,99,74,30,29.99,29.89,5,1,0,0.00
2014-12-16,76.6,57.7,42.1,51.1,45.5,38.7,99,69,27,30.06,29.95,5,1,0,0.00
2014-12-17,78.3,63.2,54.5,61.1,56.8,49.8,99,82,53,30.04,29.90,8,1,0,0.00
2014-12-18,73.0,56.8,45.0,55.3,50.0,44.4,99,81,42,30.03,29.91,6,1,0,0.00
2014-12-19,74.7,58.8,46.9,54.2,50.8,46.3,99,79,41,29.99,29.88,5,1,0,0.00
2014-12-20,79.3,63.9,52.7,64.3,59.0,52.4,99,86,56,29.96,29.85,6,1,0,0.00
2014-12-21,81.9,69.2,59.2,67.6,63.8,58.9,99,84,56,29.96,29.82,6,1,0,0.00
2014-12-22,83.1,71.8,63.3,68.7,65.9,63.0,99,84,56,29.89,29.72,8,2,0,0.09
2014-12-23,81.5,73.3,64.6,72.4,69.2,64.3,99,88,69,29.81,29.71,7,2,0,0.00
2014-12-24,85.1,76.0,70.9,74.2,71.7,70.0,99,88,64,29.76,29.66,12,4,0,0.43
2014-12-25,70.3,62.5,54.7,65.5,56.0,47.4,99,81,50,30.06,29.77,4,1,0,0.04
2014-12-26,72.5,63.2,53.2,66.3,60.1,50.1,99,90,76,30.08,29.99,4,0,0,0.00
2014-12-27,79.5,69.7,63.7,72.3,67.6,62.8,99,94,78,30.09,29.96,5,1,0,0.00
2014-12-28,84.6,73.3,63.7,71.9,67.6,63.4,99,85,52,30.01,29.90,6,1,0,0.00
2014-12-29,84.2,73.0,64.4,72.0,68.0,64.1,99,86,62,29.97,29.85,7,2,0,0.00
2014-12-30,84.4,70.5,63.7,70.2,66.3,63.4,99,88,59,30.05,29.91,5,1,0,0.00
2014-12-31,71.2,68.8,67.3,69.0,67.8,66.1,99,97,89,30.10,29.98,9,1,0,0.36
2015-1-1,76.3,69.9,64.6,72.5,68.6,64.3,99,96,84,30.07,29.95,10,2,0,0.08
2015-1-2,76.1,69.9,66.4,70.9,68.6,66.1,99,96,83,30.10,30.00,6,1,0,0.00